Time;durP1;ratioP1;P1;durP2;ratioP2;P2;SDS_P1;SDS_P2;PMS_P1;PMS_P2;Temp;Humidity;BMP_temperature;BMP_pressure;BME280_temperature;BME280_humidity;BME280_pressure;Samples;Min_cycle;Max_cycle;Signal;HPM_P1;HPM_P2
2021/11/04 00:01:51;;;;;;;17.85;10.65;;;7.30;99.90;;;;;;5091586;28;20453;-74
2021/11/04 00:04:17;;;;;;;16.92;10.98;;;7.40;99.90;;;;;;5092795;28;20355;-74
2021/11/04 00:06:43;;;;;;;21.17;11.43;;;7.40;99.90;;;;;;5092767;28;20028;-75
2021/11/04 00:09:08;;;;;;;17.45;12.15;;;7.40;99.90;;;;;;5091490;28;20085;-75
2021/11/04 00:11:34;;;;;;;18.80;12.18;;;7.40;99.90;;;;;;5092414;28;20016;-74
2021/11/04 00:14:00;;;;;;;17.45;11.32;;;7.40;99.90;;;;;;5092673;28;20460;-74
2021/11/04 00:16:26;;;;;;;22.33;13.00;;;7.40;99.90;;;;;;5092737;28;20056;-75
2021/11/04 00:18:51;;;;;;;19.08;12.13;;;7.40;99.90;;;;;;5092732;28;20055;-75
2021/11/04 00:21:17;;;;;;;20.00;12.30;;;7.30;99.90;;;;;;5092668;28;20064;-75
2021/11/04 00:23:43;;;;;;;19.02;12.73;;;7.30;99.90;;;;;;5092466;28;20028;-75
2021/11/04 00:26:08;;;;;;;19.67;12.27;;;7.20;99.90;;;;;;5092713;28;20082;-75
2021/11/04 00:28:34;;;;;;;20.13;12.88;;;7.20;99.90;;;;;;5092597;28;20028;-75
2021/11/04 00:30:59;;;;;;;19.35;12.82;;;7.20;99.90;;;;;;5092668;28;20390;-75
2021/11/04 00:33:25;;;;;;;19.20;12.98;;;7.20;99.90;;;;;;5092525;28;20474;-75
2021/11/04 00:35:51;;;;;;;22.90;14.52;;;7.30;99.90;;;;;;5092713;28;20016;-75
2021/11/04 00:38:17;;;;;;;24.75;14.50;;;7.20;99.90;;;;;;5092628;28;20020;-75
2021/11/04 00:40:43;;;;;;;21.35;13.70;;;7.20;99.90;;;;;;5094044;28;20038;-75
2021/11/04 00:43:09;;;;;;;23.95;13.88;;;7.20;99.90;;;;;;5095410;28;20028;-75
2021/11/04 00:45:34;;;;;;;19.85;13.15;;;7.20;99.90;;;;;;5096203;28;20031;-75
2021/11/04 00:48:00;;;;;;;22.05;13.80;;;7.20;99.90;;;;;;5096354;28;20023;-74
2021/11/04 00:50:26;;;;;;;23.10;13.65;;;7.10;99.90;;;;;;5094818;28;20111;-75
2021/11/04 00:52:52;;;;;;;21.88;13.38;;;7.10;99.90;;;;;;5094879;28;20023;-75
2021/11/04 00:55:18;;;;;;;26.77;15.02;;;7.10;99.90;;;;;;5094834;28;20400;-75
2021/11/04 00:57:44;;;;;;;25.20;16.50;;;7.10;99.90;;;;;;5094809;28;20118;-74
2021/11/04 01:00:12;;;;;;;24.88;15.38;;;7.10;99.90;;;;;;5096057;28;20085;-75
2021/11/04 01:02:38;;;;;;;22.35;14.80;;;7.10;99.90;;;;;;5095968;28;20377;-75
2021/11/04 01:05:04;;;;;;;21.25;13.85;;;7.10;99.90;;;;;;5094673;28;20024;-75
2021/11/04 01:07:30;;;;;;;22.83;15.23;;;7.10;99.90;;;;;;5095904;28;20099;-75
2021/11/04 01:09:55;;;;;;;24.27;15.13;;;7.10;99.90;;;;;;5095733;28;20442;-74
2021/11/04 01:12:21;;;;;;;21.20;13.43;;;7.10;99.90;;;;;;5095561;28;20024;-75
2021/11/04 01:14:47;;;;;;;22.20;14.32;;;7.10;99.90;;;;;;5095167;28;20028;-75
2021/11/04 01:17:13;;;;;;;23.17;15.68;;;7.10;99.90;;;;;;5095850;28;20095;-75
2021/11/04 01:19:38;;;;;;;26.48;17.10;;;7.10;99.90;;;;;;5095670;28;20019;-75
2021/11/04 01:22:04;;;;;;;25.08;17.90;;;7.10;99.90;;;;;;5094337;28;20477;-75
2021/11/04 01:24:31;;;;;;;26.05;16.58;;;7.10;99.90;;;;;;5095424;28;20480;-75
2021/11/04 01:26:56;;;;;;;25.67;17.40;;;7.10;99.90;;;;;;5095575;28;20056;-75
2021/11/04 01:29:22;;;;;;;26.10;16.38;;;7.10;99.90;;;;;;5095444;28;20052;-75
2021/11/04 01:31:48;;;;;;;22.80;15.75;;;7.00;99.90;;;;;;5095460;28;20474;-75
2021/11/04 01:34:14;;;;;;;24.77;17.08;;;7.10;99.90;;;;;;5095271;28;20067;-74
2021/11/04 01:36:40;;;;;;;24.52;15.82;;;7.00;99.90;;;;;;5095291;28;20020;-74
2021/11/04 01:39:06;;;;;;;21.85;14.88;;;7.10;99.90;;;;;;5095341;28;20028;-75
2021/11/04 01:41:31;;;;;;;21.00;14.57;;;7.10;99.90;;;;;;5093642;28;20023;-74
2021/11/04 01:43:57;;;;;;;24.95;14.38;;;7.10;99.90;;;;;;5093957;28;20431;-74
2021/11/04 01:46:23;;;;;;;26.23;15.73;;;7.10;99.90;;;;;;5093831;28;20473;-74
2021/11/04 01:48:50;;;;;;;22.75;16.25;;;7.20;99.90;;;;;;5093806;28;20388;-75
2021/11/04 01:51:17;;;;;;;23.92;16.05;;;7.20;99.90;;;;;;5094390;28;20066;-75
2021/11/04 01:53:43;;;;;;;26.35;17.00;;;7.10;99.90;;;;;;5094288;28;20039;-75
2021/11/04 01:56:09;;;;;;;26.77;16.23;;;7.10;99.90;;;;;;5094951;28;20663;-75
2021/11/04 01:58:35;;;;;;;24.77;16.98;;;7.10;99.90;;;;;;5094920;28;20095;-75
2021/11/04 02:01:00;;;;;;;23.70;15.27;;;7.10;99.90;;;;;;5093612;28;20087;-74
2021/11/04 02:03:45;;;;;;;26.92;18.00;;;7.10;99.90;;;;;;5094824;28;20099;-74
2021/11/04 02:06:44;;;;;;;27.05;16.52;;;7.10;99.90;;;;;;5094871;28;20016;-74
2021/11/04 02:09:38;;;;;;;31.00;17.23;;;7.10;99.90;;;;;;5093440;28;20043;-74
2021/11/04 02:12:33;;;;;;;26.48;17.00;;;7.10;99.90;;;;;;5094261;28;20493;-75
2021/11/04 02:15:00;;;;;;;23.73;15.25;;;7.10;99.90;;;;;;5094165;28;20051;-74
2021/11/04 02:17:28;;;;;;;27.70;16.35;;;7.00;99.90;;;;;;5094525;28;20028;-74
2021/11/04 02:19:57;;;;;;;26.42;14.90;;;7.00;99.90;;;;;;5094516;28;20027;-75
2021/11/04 02:22:28;;;;;;;24.77;16.25;;;7.10;99.90;;;;;;5094484;28;20063;-75
2021/11/04 02:25:12;;;;;;;23.52;14.98;;;7.10;99.90;;;;;;5094449;28;20016;-74
2021/11/04 02:27:40;;;;;;;22.17;13.50;;;7.10;99.90;;;;;;5094393;28;20055;-75
2021/11/04 02:30:06;;;;;;;21.30;14.23;;;7.20;99.90;;;;;;5094289;28;20036;-74
2021/11/04 02:32:33;;;;;;;25.60;13.60;;;7.20;99.90;;;;;;5092969;28;20073;-74
2021/11/04 02:34:59;;;;;;;21.23;12.60;;;7.20;99.90;;;;;;5094143;28;20105;-74
2021/11/04 02:37:28;;;;;;;18.05;12.68;;;7.20;99.90;;;;;;5092896;28;20024;-74
2021/11/04 02:39:54;;;;;;;20.98;13.50;;;7.20;99.90;;;;;;5092345;28;20032;-75
2021/11/04 02:42:20;;;;;;;18.33;12.38;;;7.30;99.90;;;;;;5094087;28;20024;-75
2021/11/04 02:44:46;;;;;;;21.30;12.93;;;7.30;99.90;;;;;;5094019;28;20077;-74
2021/11/04 02:47:12;;;;;;;19.70;13.10;;;7.30;99.90;;;;;;5092783;28;20504;-75
2021/11/04 02:49:38;;;;;;;18.38;12.23;;;7.30;99.90;;;;;;5093929;28;20032;-74
2021/11/04 02:52:05;;;;;;;16.42;10.68;;;7.40;99.90;;;;;;5093894;28;20072;-75
2021/11/04 02:54:31;;;;;;;19.23;11.23;;;7.40;99.90;;;;;;5093696;28;20085;-75
2021/11/04 02:56:57;;;;;;;17.45;11.10;;;7.40;99.90;;;;;;5094122;28;20058;-75
2021/11/04 02:59:25;;;;;;;20.92;12.43;;;7.40;99.90;;;;;;5092452;28;20088;-75
2021/11/04 03:02:00;;;;;;;17.83;11.52;;;7.30;99.90;;;;;;5093734;28;20012;-74
2021/11/04 03:04:26;;;;;;;17.23;11.25;;;7.30;99.90;;;;;;5093295;28;20024;-74
2021/11/04 03:06:52;;;;;;;20.70;11.50;;;7.30;99.90;;;;;;5092109;28;20065;-75
2021/11/04 03:09:20;;;;;;;18.00;10.95;;;7.30;99.90;;;;;;5093404;28;20032;-74
2021/11/04 03:11:46;;;;;;;17.30;10.13;;;7.20;99.90;;;;;;5093629;28;20393;-74
2021/11/04 03:14:12;;;;;;;16.80;11.45;;;7.20;99.90;;;;;;5093390;28;20036;-74
2021/11/04 03:16:43;;;;;;;17.48;11.60;;;7.20;99.90;;;;;;5092219;28;20366;-74
2021/11/04 03:19:11;;;;;;;16.95;10.18;;;7.30;99.90;;;;;;5093368;28;20047;-74
2021/11/04 03:21:38;;;;;;;18.33;11.30;;;7.30;99.90;;;;;;5093002;28;20026;-74
2021/11/04 03:24:05;;;;;;;17.77;11.45;;;7.30;99.90;;;;;;5093355;28;20016;-74
2021/11/04 03:26:36;;;;;;;16.58;9.68;;;7.30;99.90;;;;;;5093309;28;20021;-74
2021/11/04 03:29:02;;;;;;;16.33;9.75;;;7.30;99.90;;;;;;5093319;28;20024;-74
2021/11/04 03:31:28;;;;;;;17.75;10.90;;;7.30;99.90;;;;;;5093229;28;20091;-74
2021/11/04 03:33:54;;;;;;;19.15;12.05;;;7.30;99.90;;;;;;5087192;28;20032;-75
2021/11/04 03:36:21;;;;;;;15.30;9.90;;;7.30;99.90;;;;;;5090977;28;20020;-74
2021/11/04 03:38:49;;;;;;;13.63;9.27;;;7.30;99.90;;;;;;5091727;28;20031;-75
2021/11/04 03:41:17;;;;;;;15.55;10.48;;;7.30;99.90;;;;;;5093137;28;20028;-75
2021/11/04 03:43:44;;;;;;;16.50;10.10;;;7.40;99.90;;;;;;5079282;28;20013;-75
2021/11/04 03:46:10;;;;;;;14.95;9.63;;;7.30;99.90;;;;;;5072905;28;20371;-74
2021/11/04 03:48:38;;;;;;;14.90;9.55;;;7.40;99.90;;;;;;5071508;28;20020;-74
2021/11/04 03:51:04;;;;;;;15.00;9.73;;;7.30;99.90;;;;;;5072841;28;20025;-75
2021/11/04 03:53:30;;;;;;;13.20;9.27;;;7.40;99.90;;;;;;5071444;28;20473;-74
2021/11/04 03:55:56;;;;;;;17.10;9.10;;;7.40;99.90;;;;;;5071459;28;20466;-74
2021/11/04 03:58:25;;;;;;;12.35;8.30;;;7.40;99.90;;;;;;5071447;28;20024;-75
2021/11/04 04:00:54;;;;;;;15.30;9.95;;;7.40;99.90;;;;;;5072708;28;20028;-75
2021/11/04 04:03:20;;;;;;;15.98;9.52;;;7.40;99.90;;;;;;5072703;28;20563;-75
2021/11/04 04:06:01;;;;;;;14.60;9.48;;;7.40;99.90;;;;;;5071412;28;20115;-75
2021/11/04 04:08:27;;;;;;;12.80;8.32;;;7.40;99.90;;;;;;5086174;28;20031;-74
2021/11/04 04:10:53;;;;;;;16.08;9.90;;;7.40;99.90;;;;;;5092874;28;20024;-74
2021/11/04 04:13:18;;;;;;;15.15;8.60;;;7.40;99.90;;;;;;5091442;28;20040;-75
2021/11/04 04:15:44;;;;;;;15.85;10.20;;;7.30;99.90;;;;;;5093069;28;20020;-75
2021/11/04 04:18:10;;;;;;;17.17;10.05;;;7.30;99.90;;;;;;5095663;28;20012;-75
2021/11/04 04:20:35;;;;;;;13.98;9.68;;;7.30;99.90;;;;;;5096755;28;20036;-75
2021/11/04 04:23:01;;;;;;;18.45;10.93;;;7.30;99.90;;;;;;5096800;28;20066;-75
2021/11/04 04:25:30;;;;;;;15.63;9.00;;;7.30;99.90;;;;;;5096669;28;20027;-74
2021/11/04 04:27:56;;;;;;;16.40;10.27;;;7.30;99.90;;;;;;5096704;28;20042;-74
2021/11/04 04:30:21;;;;;;;16.13;9.05;;;7.30;99.90;;;;;;5096765;28;20016;-74
2021/11/04 04:32:47;;;;;;;14.65;9.35;;;7.30;99.90;;;;;;5095849;28;20497;-74
2021/11/04 04:35:13;;;;;;;11.88;8.15;;;7.30;99.90;;;;;;5096283;28;20028;-75
2021/11/04 04:37:38;;;;;;;17.58;10.32;;;7.30;99.90;;;;;;5096249;28;20028;-75
2021/11/04 04:40:04;;;;;;;18.70;9.18;;;7.30;99.90;;;;;;5096483;28;20024;-74
2021/11/04 04:42:30;;;;;;;15.90;8.68;;;7.40;99.90;;;;;;5096323;28;20019;-74
2021/11/04 04:44:56;;;;;;;15.07;9.25;;;7.40;99.90;;;;;;5096320;28;20020;-75
2021/11/04 04:47:21;;;;;;;11.30;7.70;;;7.40;99.90;;;;;;5096301;28;20032;-74
2021/11/04 04:49:47;;;;;;;17.90;8.25;;;7.40;99.90;;;;;;5096216;28;20034;-75
2021/11/04 04:52:13;;;;;;;13.15;7.72;;;7.50;99.90;;;;;;5096233;28;20026;-75
2021/11/04 04:54:38;;;;;;;12.25;7.43;;;7.50;99.90;;;;;;5096053;28;20083;-74
2021/11/04 04:57:04;;;;;;;13.65;8.77;;;7.50;99.90;;;;;;5094960;28;20020;-74
2021/11/04 04:59:30;;;;;;;13.93;7.95;;;7.50;99.90;;;;;;5094707;28;20389;-74
2021/11/04 05:01:56;;;;;;;10.15;7.55;;;7.60;99.90;;;;;;5094597;28;20508;-75
2021/11/04 05:04:21;;;;;;;13.73;8.43;;;7.60;99.90;;;;;;5094657;28;20027;-75
2021/11/04 05:06:47;;;;;;;9.60;6.57;;;7.60;99.90;;;;;;5094330;28;20027;-75
2021/11/04 05:09:13;;;;;;;9.10;7.40;;;7.60;99.90;;;;;;5096089;28;20040;-75
2021/11/04 05:11:38;;;;;;;16.85;8.73;;;7.60;99.90;;;;;;5095898;28;20103;-75
2021/11/04 05:14:04;;;;;;;11.07;7.80;;;7.70;99.90;;;;;;5095661;28;20043;-74
2021/11/04 05:16:30;;;;;;;13.23;7.00;;;7.70;99.90;;;;;;5095415;28;20016;-75
2021/11/04 05:18:56;;;;;;;12.30;7.18;;;7.70;99.90;;;;;;5084852;28;20549;-75
2021/11/04 05:21:21;;;;;;;12.45;7.47;;;7.80;99.90;;;;;;5089089;28;20095;-74
2021/11/04 05:23:47;;;;;;;12.07;7.97;;;7.70;99.90;;;;;;5079929;28;20042;-75
2021/11/04 05:26:13;;;;;;;11.68;7.28;;;7.80;99.90;;;;;;5083031;28;20099;-75
2021/11/04 05:28:38;;;;;;;10.38;7.55;;;7.80;99.90;;;;;;5081259;28;20149;-74
2021/11/04 05:31:04;;;;;;;10.32;7.28;;;7.80;99.90;;;;;;5083701;28;20017;-74
2021/11/04 05:33:30;;;;;;;13.13;8.23;;;7.80;99.90;;;;;;5085601;28;20047;-75
2021/11/04 05:35:55;;;;;;;9.52;6.68;;;7.80;99.90;;;;;;5088730;28;20489;-75
2021/11/04 05:38:21;;;;;;;11.45;7.85;;;7.80;99.90;;;;;;5084075;28;20016;-75
2021/11/04 05:40:47;;;;;;;8.43;7.10;;;7.80;99.90;;;;;;5083987;28;20017;-75
2021/11/04 05:43:12;;;;;;;10.25;6.28;;;7.80;99.90;;;;;;5089646;28;20021;-75
2021/11/04 05:45:38;;;;;;;11.75;7.15;;;7.80;99.90;;;;;;5089584;28;20351;-74
2021/11/04 05:48:04;;;;;;;11.02;7.22;;;7.80;99.90;;;;;;5089517;28;20031;-74
2021/11/04 05:50:30;;;;;;;8.93;6.43;;;7.80;99.90;;;;;;5080716;28;20389;-74
2021/11/04 05:52:55;;;;;;;11.02;7.28;;;7.70;99.90;;;;;;5083601;28;20021;-74
2021/11/04 05:55:21;;;;;;;11.50;7.10;;;7.80;99.90;;;;;;5084267;28;20027;-75
2021/11/04 05:57:47;;;;;;;16.92;6.82;;;7.70;99.90;;;;;;5087805;28;20020;-75
2021/11/04 06:00:13;;;;;;;9.25;6.13;;;7.70;99.90;;;;;;5087963;28;20524;-75
2021/11/04 06:02:39;;;;;;;12.05;7.32;;;7.80;99.90;;;;;;5095112;28;20033;-74
2021/11/04 06:05:05;;;;;;;12.70;7.07;;;7.80;99.90;;;;;;5082939;28;20035;-75
2021/11/04 06:07:31;;;;;;;12.05;7.55;;;7.80;99.90;;;;;;5083015;28;20091;-74
2021/11/04 06:09:57;;;;;;;12.57;7.38;;;7.80;99.90;;;;;;5084245;28;20123;-75
2021/11/04 06:12:23;;;;;;;11.50;7.47;;;7.80;99.90;;;;;;5085278;28;20062;-75
2021/11/04 06:14:49;;;;;;;10.35;7.45;;;7.80;99.90;;;;;;5081758;28;20043;-74
2021/11/04 06:17:14;;;;;;;11.95;7.45;;;7.80;99.90;;;;;;5084665;28;20492;-75
2021/11/04 06:19:40;;;;;;;11.43;7.18;;;7.80;99.90;;;;;;5078009;28;20424;-74
2021/11/04 06:22:06;;;;;;;11.90;6.88;;;7.80;99.90;;;;;;5089533;28;20081;-74
2021/11/04 06:24:31;;;;;;;8.05;6.93;;;7.80;99.90;;;;;;5094232;28;20027;-74
2021/11/04 06:26:57;;;;;;;11.15;7.20;;;7.90;99.90;;;;;;5094475;28;20082;-74
2021/11/04 06:29:23;;;;;;;9.82;6.93;;;7.90;99.90;;;;;;5093691;28;20036;-74
2021/11/04 06:31:49;;;;;;;10.70;8.20;;;7.90;99.90;;;;;;5093732;28;20020;-74
2021/11/04 06:34:14;;;;;;;8.52;7.00;;;8.00;99.90;;;;;;5093775;28;20036;-75
2021/11/04 06:36:40;;;;;;;11.85;7.03;;;8.00;99.90;;;;;;5093799;28;20065;-74
2021/11/04 06:39:06;;;;;;;8.23;6.43;;;8.00;99.90;;;;;;5092967;28;20047;-74
2021/11/04 06:41:32;;;;;;;9.63;6.55;;;8.00;99.90;;;;;;5093634;28;20095;-75
2021/11/04 06:43:57;;;;;;;9.80;6.88;;;8.00;99.90;;;;;;5093644;28;20038;-75
2021/11/04 06:46:28;;;;;;;12.20;6.90;;;8.10;99.90;;;;;;5093596;28;20024;-75
2021/11/04 06:49:04;;;;;;;11.80;7.65;;;8.10;99.90;;;;;;5089990;28;20024;-74
2021/11/04 06:51:31;;;;;;;10.20;7.43;;;8.20;99.90;;;;;;5086808;28;20021;-74
2021/11/04 06:54:00;;;;;;;11.98;6.88;;;8.20;99.90;;;;;;5088160;28;20028;-75
2021/11/04 06:56:26;;;;;;;10.57;7.40;;;8.20;99.90;;;;;;5073132;28;20020;-74
2021/11/04 06:58:55;;;;;;;10.95;7.00;;;8.20;99.90;;;;;;5076148;28;20377;-75
2021/11/04 07:01:22;;;;;;;8.93;6.22;;;8.30;99.90;;;;;;5072444;28;20070;-75
2021/11/04 07:03:49;;;;;;;10.07;7.03;;;8.30;99.90;;;;;;5106506;28;20443;-75
2021/11/04 07:06:23;;;;;;;9.60;6.60;;;8.30;99.90;;;;;;5091743;27;20047;-75
2021/11/04 07:09:06;;;;;;;9.75;6.65;;;8.40;99.90;;;;;;5091701;28;20066;-74
2021/11/04 07:11:32;;;;;;;11.85;7.13;;;8.40;99.90;;;;;;5092136;28;20031;-75
2021/11/04 07:13:59;;;;;;;12.18;7.75;;;8.40;99.90;;;;;;5092236;28;20119;-74
2021/11/04 07:16:26;;;;;;;10.52;7.15;;;8.50;99.90;;;;;;5092373;27;20039;-75
2021/11/04 07:18:55;;;;;;;8.10;6.53;;;8.50;99.90;;;;;;5092454;28;20028;-74
2021/11/04 07:21:43;;;;;;;12.15;7.40;;;8.50;99.90;;;;;;5092530;27;20093;-74
2021/11/04 07:24:13;;;;;;;11.25;7.03;;;8.60;99.90;;;;;;5090025;28;20020;-74
2021/11/04 07:26:40;;;;;;;12.77;7.20;;;8.60;99.90;;;;;;5090089;28;20024;-75
2021/11/04 07:29:09;;;;;;;10.93;6.47;;;8.70;99.90;;;;;;5091280;28;20032;-74
2021/11/04 07:31:41;;;;;;;10.45;6.13;;;8.70;99.90;;;;;;5090034;28;20111;-74
2021/11/04 07:34:10;;;;;;;12.80;7.70;;;8.70;99.90;;;;;;5094242;28;20032;-74
2021/11/04 07:36:38;;;;;;;8.98;6.80;;;8.80;99.90;;;;;;5092375;28;20030;-75
2021/11/04 07:39:06;;;;;;;11.48;6.95;;;8.70;99.90;;;;;;5090296;28;20074;-74
2021/11/04 07:41:33;;;;;;;10.88;7.70;;;8.80;99.90;;;;;;5091209;28;20023;-75
2021/11/04 07:44:00;;;;;;;10.50;8.90;;;8.70;99.90;;;;;;5088540;28;20077;-74
2021/11/04 07:46:27;;;;;;;10.68;8.02;;;8.80;99.90;;;;;;5088964;28;20096;-74
2021/11/04 07:48:53;;;;;;;11.70;8.13;;;8.70;99.90;;;;;;5090015;28;20393;-74
2021/11/04 07:51:19;;;;;;;11.52;7.00;;;8.80;99.90;;;;;;5092859;28;20489;-74
2021/11/04 07:53:45;;;;;;;12.75;7.38;;;8.70;99.90;;;;;;5092117;28;20036;-75
2021/11/04 07:56:11;;;;;;;13.40;7.68;;;8.80;99.90;;;;;;5092738;28;20023;-74
2021/11/04 07:58:38;;;;;;;12.10;9.00;;;8.80;99.90;;;;;;5092937;28;20095;-74
2021/11/04 08:01:04;;;;;;;12.43;8.38;;;8.80;99.90;;;;;;5092833;28;20028;-74
2021/11/04 08:03:29;;;;;;;14.20;8.52;;;8.80;99.90;;;;;;5090580;28;20397;-75
2021/11/04 08:05:55;;;;;;;12.63;7.72;;;8.90;99.90;;;;;;5091684;28;20028;-74
2021/11/04 08:08:21;;;;;;;16.90;8.35;;;8.90;99.90;;;;;;5090702;28;20016;-74
2021/11/04 08:10:50;;;;;;;11.63;7.93;;;8.90;99.90;;;;;;5090385;28;20031;-74
2021/11/04 08:13:16;;;;;;;13.65;7.47;;;9.00;99.90;;;;;;5091884;28;20028;-74
2021/11/04 08:15:42;;;;;;;11.23;7.88;;;9.00;99.90;;;;;;5091031;28;20028;-74
2021/11/04 08:18:09;;;;;;;14.15;8.32;;;9.00;99.90;;;;;;5091196;28;20028;-75
2021/11/04 08:20:35;;;;;;;14.85;8.55;;;9.10;99.90;;;;;;5091500;28;20027;-75
2021/11/04 08:23:06;;;;;;;15.02;7.30;;;9.10;99.90;;;;;;5091760;28;20065;-74
2021/11/04 08:25:32;;;;;;;11.13;7.80;;;9.20;99.90;;;;;;5092518;28;20028;-75
2021/11/04 08:27:58;;;;;;;9.27;6.72;;;9.30;99.90;;;;;;5091846;28;20027;-75
2021/11/04 08:30:24;;;;;;;10.20;7.25;;;9.30;99.90;;;;;;5090966;28;20032;-74
2021/11/04 08:32:50;;;;;;;12.30;7.00;;;9.40;99.90;;;;;;5091928;28;20024;-75
2021/11/04 08:35:16;;;;;;;10.57;6.70;;;9.40;99.90;;;;;;5091938;28;20085;-75
2021/11/04 08:37:42;;;;;;;11.25;6.47;;;9.50;99.90;;;;;;5092664;28;20023;-74
2021/11/04 08:40:09;;;;;;;11.60;6.40;;;9.50;99.90;;;;;;5092586;28;20031;-74
2021/11/04 08:42:35;;;;;;;12.90;6.22;;;9.60;99.90;;;;;;5091448;28;20009;-74
2021/11/04 08:45:01;;;;;;;9.40;6.47;;;9.60;99.90;;;;;;5089120;28;20339;-74
2021/11/04 08:47:29;;;;;;;8.60;6.10;;;9.70;99.90;;;;;;5090385;28;20020;-74
2021/11/04 08:49:56;;;;;;;9.68;6.43;;;9.70;99.90;;;;;;5089537;28;20516;-74
2021/11/04 08:52:23;;;;;;;10.27;6.60;;;9.80;99.90;;;;;;5089317;28;20065;-74
2021/11/04 08:54:50;;;;;;;9.95;7.40;;;9.90;99.90;;;;;;5090256;28;20059;-74
2021/11/04 08:57:15;;;;;;;10.52;6.15;;;10.00;99.90;;;;;;5089444;28;20024;-74
2021/11/04 08:59:42;;;;;;;8.73;6.18;;;10.00;99.90;;;;;;5080611;28;20028;-74
2021/11/04 09:02:14;;;;;;;8.63;5.32;;;10.10;99.90;;;;;;5094587;28;20036;-74
2021/11/04 09:04:45;;;;;;;9.80;5.95;;;10.20;99.90;;;;;;5086244;28;20028;-74
2021/11/04 09:07:14;;;;;;;7.97;5.35;;;10.30;99.90;;;;;;5075743;28;20104;-74
2021/11/04 09:09:40;;;;;;;10.00;5.93;;;10.40;99.90;;;;;;5078679;28;20024;-73
2021/11/04 09:12:06;;;;;;;6.97;5.80;;;10.50;99.90;;;;;;5095549;28;20502;-72
2021/11/04 09:14:32;;;;;;;6.70;4.70;;;10.60;99.90;;;;;;5095176;28;20028;-72
2021/11/04 09:16:57;;;;;;;7.03;4.57;;;10.80;99.90;;;;;;5093833;28;20032;-73
2021/11/04 09:19:23;;;;;;;6.78;4.18;;;10.90;99.90;;;;;;5094966;28;20031;-72
2021/11/04 09:21:48;;;;;;;9.35;5.63;;;11.00;99.90;;;;;;5084787;28;20032;-72
2021/11/04 09:24:14;;;;;;;5.95;4.50;;;11.20;99.90;;;;;;5095179;28;20031;-73
2021/11/04 09:26:41;;;;;;;13.52;4.93;;;11.20;99.90;;;;;;5095310;28;20034;-73
2021/11/04 09:29:06;;;;;;;7.30;4.75;;;11.30;99.90;;;;;;5095556;28;20016;-72
2021/11/04 09:31:33;;;;;;;5.90;4.55;;;11.40;99.90;;;;;;5095509;28;20473;-73
2021/11/04 09:33:59;;;;;;;6.13;4.68;;;11.50;99.90;;;;;;5094222;28;20036;-75
2021/11/04 09:36:30;;;;;;;11.25;5.47;;;11.50;99.90;;;;;;5085240;28;20450;-75
2021/11/04 09:39:00;;;;;;;6.47;4.22;;;11.60;99.90;;;;;;5094889;28;20477;-75
2021/11/04 09:41:29;;;;;;;6.80;4.43;;;11.60;99.90;;;;;;5094772;28;20077;-73
2021/11/04 09:43:57;;;;;;;6.78;4.05;;;11.70;99.90;;;;;;5093844;28;20031;-73
2021/11/04 09:46:24;;;;;;;8.55;5.28;;;11.80;99.90;;;;;;5093981;28;20020;-74
2021/11/04 09:48:50;;;;;;;7.65;4.85;;;11.80;99.90;;;;;;5092263;28;20055;-74
2021/11/04 09:51:16;;;;;;;6.72;4.53;;;11.90;99.90;;;;;;5092740;28;20019;-74
2021/11/04 09:53:43;;;;;;;8.00;4.95;;;11.90;99.90;;;;;;5094052;28;20086;-74
2021/11/04 09:56:08;;;;;;;7.78;4.68;;;11.90;99.90;;;;;;5094055;28;20385;-74
2021/11/04 09:58:34;;;;;;;8.95;5.05;;;11.90;99.90;;;;;;5093959;28;20012;-74
2021/11/04 10:01:19;;;;;;;9.10;5.07;;;11.90;99.90;;;;;;5092978;28;20546;-74
2021/11/04 10:03:46;;;;;;;8.57;5.15;;;11.90;99.90;;;;;;5094135;28;20047;-74
2021/11/04 10:06:25;;;;;;;8.05;4.18;;;12.00;99.90;;;;;;5092638;28;20045;-74
2021/11/04 10:08:53;;;;;;;6.38;4.65;;;11.90;99.90;;;;;;5092603;28;20043;-74
2021/11/04 10:11:26;;;;;;;6.35;4.53;;;11.90;99.90;;;;;;5092596;28;20031;-74
2021/11/04 10:13:58;;;;;;;6.65;4.30;;;12.00;99.90;;;;;;5090102;28;20082;-74
2021/11/04 10:16:26;;;;;;;7.10;4.55;;;11.90;99.90;;;;;;5092643;28;20012;-74
2021/11/04 10:18:52;;;;;;;5.75;4.00;;;11.90;99.90;;;;;;5092419;28;20020;-74
2021/11/04 10:21:26;;;;;;;7.60;4.03;;;12.00;99.90;;;;;;5091128;28;20396;-74
2021/11/04 10:23:52;;;;;;;7.97;4.45;;;12.00;99.90;;;;;;5091173;28;20390;-74
2021/11/04 10:26:21;;;;;;;7.38;4.78;;;12.00;99.90;;;;;;5092336;28;20024;-74
2021/11/04 10:28:50;;;;;;;7.63;4.57;;;12.00;99.90;;;;;;5092656;28;20572;-74
2021/11/04 10:31:19;;;;;;;8.40;5.40;;;12.00;99.90;;;;;;5093010;28;20028;-74
2021/11/04 10:33:47;;;;;;;8.10;4.85;;;12.00;99.90;;;;;;5094193;28;20036;-74
2021/11/04 10:36:21;;;;;;;7.15;4.18;;;12.00;99.90;;;;;;5094266;28;20020;-74
2021/11/04 10:38:51;;;;;;;8.48;4.03;;;12.00;99.90;;;;;;5094253;28;20039;-74
2021/11/04 10:41:39;;;;;;;8.05;5.25;;;12.00;99.90;;;;;;5094116;28;20024;-74
2021/11/04 10:44:09;;;;;;;7.82;4.78;;;12.10;99.90;;;;;;5094244;28;20024;-74
2021/11/04 10:46:46;;;;;;;5.68;3.97;;;12.10;99.90;;;;;;5092812;28;20044;-74
2021/11/04 10:49:12;;;;;;;7.75;3.88;;;12.10;99.90;;;;;;5094013;28;20027;-74
2021/11/04 10:51:39;;;;;;;7.75;4.85;;;12.10;99.90;;;;;;5093986;28;20027;-74
2021/11/04 10:54:13;;;;;;;6.00;4.00;;;12.10;99.90;;;;;;5094042;28;20040;-74
2021/11/04 10:56:40;;;;;;;6.47;4.10;;;12.10;99.90;;;;;;5092648;28;20444;-74
2021/11/04 10:59:17;;;;;;;7.97;4.22;;;12.10;99.90;;;;;;5093797;28;20107;-74
2021/11/04 11:01:44;;;;;;;5.30;4.13;;;12.10;99.90;;;;;;5092528;28;20107;-74
2021/11/04 11:04:14;;;;;;;7.10;4.40;;;12.00;99.90;;;;;;5093598;28;20016;-74
2021/11/04 11:06:42;;;;;;;7.90;4.15;;;12.00;99.90;;;;;;5093641;28;20024;-74
2021/11/04 11:09:12;;;;;;;6.40;3.97;;;12.00;99.90;;;;;;5093642;28;20084;-74
2021/11/04 11:11:39;;;;;;;7.40;4.28;;;12.00;99.90;;;;;;5093860;28;20486;-74
2021/11/04 11:14:05;;;;;;;6.07;3.63;;;11.90;99.90;;;;;;5093521;28;20115;-74
2021/11/04 11:16:32;;;;;;;4.97;3.72;;;11.90;99.90;;;;;;5093533;28;20095;-74
2021/11/04 11:18:59;;;;;;;8.05;4.43;;;11.90;99.90;;;;;;5093407;28;20024;-74
2021/11/04 11:21:34;;;;;;;6.65;4.57;;;12.00;99.90;;;;;;5092154;28;20472;-74
2021/11/04 11:24:03;;;;;;;7.15;4.30;;;11.90;99.90;;;;;;5092742;28;20032;-74
2021/11/04 11:26:30;;;;;;;6.80;3.85;;;12.00;99.90;;;;;;5093353;28;20032;-74
2021/11/04 11:28:57;;;;;;;8.15;5.05;;;11.90;99.90;;;;;;5093341;28;20024;-74
2021/11/04 11:31:25;;;;;;;8.23;4.43;;;12.00;99.90;;;;;;5093296;28;20024;-74
2021/11/04 11:34:21;;;;;;;9.82;4.53;;;12.00;99.90;;;;;;5093196;28;20071;-74
2021/11/04 11:37:12;;;;;;;8.18;4.57;;;12.00;99.90;;;;;;5089118;28;20111;-74
2021/11/04 11:39:39;;;;;;;5.40;4.10;;;12.10;99.90;;;;;;5093078;28;20032;-74
2021/11/04 11:42:07;;;;;;;6.65;4.03;;;12.20;99.90;;;;;;5093368;28;20103;-74
2021/11/04 11:44:52;;;;;;;6.22;4.00;;;12.30;99.90;;;;;;5091815;28;20032;-74
2021/11/04 11:47:19;;;;;;;7.10;4.22;;;12.30;99.90;;;;;;5093179;28;20036;-74
2021/11/04 11:49:48;;;;;;;8.25;4.53;;;12.40;99.90;;;;;;5093010;28;20039;-74
2021/11/04 11:52:51;;;;;;;6.68;3.90;;;12.40;99.90;;;;;;5093084;28;20028;-74
2021/11/04 11:55:22;;;;;;;6.90;4.13;;;12.40;99.90;;;;;;5086656;28;20040;-74
2021/11/04 11:58:19;;;;;;;6.97;4.47;;;12.50;99.90;;;;;;5092961;28;20056;-74
2021/11/04 12:00:56;;;;;;;5.20;3.83;;;12.50;99.90;;;;;;5092997;28;20043;-74
2021/11/04 12:03:31;;;;;;;6.45;4.22;;;12.50;99.90;;;;;;5091650;28;20390;-74
2021/11/04 12:06:00;;;;;;;8.43;5.03;;;12.60;99.90;;;;;;5092950;28;20020;-74
2021/11/04 12:08:28;;;;;;;8.40;4.63;;;12.60;99.90;;;;;;5092763;28;20482;-74
2021/11/04 12:11:01;;;;;;;7.93;4.57;;;12.70;99.90;;;;;;5092922;28;20017;-74
2021/11/04 12:13:45;;;;;;;10.50;5.88;;;12.70;99.90;;;;;;5092743;28;20367;-74
2021/11/04 12:16:23;;;;;;;8.80;5.20;;;12.80;99.90;;;;;;5091560;28;20362;-74
2021/11/04 12:18:52;;;;;;;9.30;5.03;;;12.80;99.90;;;;;;5091435;28;20032;-74
2021/11/04 12:21:22;;;;;;;8.52;5.13;;;12.70;99.90;;;;;;5092683;28;20028;-74
2021/11/04 12:23:48;;;;;;;8.93;6.03;;;12.70;99.90;;;;;;5092736;28;20045;-74
2021/11/04 12:26:15;;;;;;;7.53;4.68;;;12.70;99.90;;;;;;5092670;28;20043;-74
2021/11/04 12:28:49;;;;;;;7.85;4.80;;;12.80;99.90;;;;;;5092725;28;20031;-74
2021/11/04 12:31:20;;;;;;;7.55;5.75;;;12.90;99.90;;;;;;5092628;28;20024;-74
2021/11/04 12:33:47;;;;;;;7.45;5.15;;;13.10;99.90;;;;;;5092631;28;20370;-74
2021/11/04 12:36:24;;;;;;;6.50;4.68;;;13.20;99.90;;;;;;5093319;28;20359;-74
2021/11/04 12:38:50;;;;;;;6.32;4.97;;;13.20;99.90;;;;;;5096475;28;20024;-74
2021/11/04 12:41:19;;;;;;;5.95;4.20;;;13.30;99.90;;;;;;5095458;28;20066;-74
2021/11/04 12:43:47;;;;;;;8.57;5.10;;;13.30;99.90;;;;;;5096450;28;20073;-74
2021/11/04 12:46:25;;;;;;;8.68;4.50;;;13.40;99.90;;;;;;5093555;28;20016;-74
2021/11/04 12:48:55;;;;;;;8.73;4.80;;;13.50;99.90;;;;;;5094873;28;20044;-74
2021/11/04 12:51:23;;;;;;;6.97;4.63;;;13.70;99.90;;;;;;5095542;28;20028;-74